ADDS METAR Data INFO
IDs: Format: Raw Decoded Include TAF

Data at: 0342 UTC 20 Feb 2018

KEVB 200247Z 12007KT 10SM SCT023 BKN031 BKN037 22/20 A3034 RMK LAST
KEVB 200147Z 12007KT 10SM SKC 22/20 A3032
KEVB 200047Z 12007KT 10SM SKC 22/19 A3031
KEVB 192347Z 12010KT 10SM SCT030 22/19 A3031
KEVB 192247Z 13011KT 10SM SCT030 24/19 A3030
KEVB 192147Z 11011G16KT 10SM SCT030 25/19 A3030
KEVB 192047Z 11011G16KT 10SM SCT030 25/19 A3030
KEVB 191947Z 12010G17KT 10SM SCT030 26/18 A3030
KEVB 191847Z 12011G17KT 10SM SCT030 27/18 A3031
KEVB 191747Z 13011G16KT 10SM SCT030 27/18 A3034
KEVB 191647Z 12011G17T 10SM SCT027 27/18 A3035
KEVB 191547Z 12011G15KT 10SM SCT027 25/18 A3037
KEVB 191447Z 13011KT 10SM SCT022 25/18 A3036
KEVB 191347Z 00000KT 10SM SKC 22/20 A3034
KEVB 191247Z 00000KT 6SM BR SKC 16/15 A3033
KEVB 191215Z 00000KT 1/2SM FG VV005 15/15 A3032
KEVB 191147Z 00000KT 2SM BR SCT027 15/15 A3031 RMK FIRST
KEVB 190247Z 00000KT 10SM SKC 20/19 A3029 RMK LAST
KEVB 190047Z 07004KT 10SM SKC 20/18 A3027
KEVB 182347Z 07003KT 10SM SKC 20/18 A3026
KEVB 182247Z 07005KT 10SM SKC 21/19 A3026
KEVB 182147Z 05010KT 10SM SKC 22/18 A3024
KEVB 182047Z 05010KT 10SM SCT008 21/18 A3024
KEVB 182025Z 04009KT 10SM SCT003 20/17 A3024
KEVB 181947Z 05010KT 1/2SM FG BKN003 19/17 A3024
KEVB 181847Z 05010KT 1/2SM FG BKN004 20/17 A3025
KEVB 181830Z 05009KT 1/2SM FG SCT002 21/17 A3025
KEVB 181747Z 04009KT 10SM SCT002 21/17 A3026
KEVB 181647Z 04005KT 10SM SKC 23/18 A3027
KEVB 181547Z 03004KT 10SM SKC 22/17 A3028